Terminal Aerodrome Forecast
Issued by NWS

Home | Current Version | Previous Version | Text Only | Print | Product List | Glossary On
Versions: 1 2 3 4 5 6 7 8 9 10 11 12 13
000
FTUS45 KPIH 201729
TAFSUN
TAF
KSUN 201729Z 2018/2124 17009KT P6SM SCT130
     FM202200 22010G20KT P6SM SKC
     FM210300 32011KT P6SM SKC
     FM211700 15008KT P6SM SKC
     FM212200 21010KT P6SM SKC=

USA.gov is the U.S. government's official web portal to all federal, state and local government web resources and services.